Time;durP1;ratioP1;P1;durP2;ratioP2;P2;SDS_P1;SDS_P2;PMS_P1;PMS_P2;Temp;Humidity;BMP_temperature;BMP_pressure;BME280_temperature;BME280_humidity;BME280_pressure;Samples;Min_cycle;Max_cycle;Signal;HPM_P1;HPM_P2
2023/12/21 00:01:34;;;;;;;3.78;2.00;;;11.50;81.10;;;;;;4979712;28;20065;-76
2023/12/21 00:04:01;;;;;;;3.72;1.60;;;11.60;81.20;;;;;;4979130;28;20034;-75
2023/12/21 00:06:27;;;;;;;2.10;1.65;;;11.60;81.20;;;;;;4995107;28;20027;-77
2023/12/21 00:08:53;;;;;;;3.30;1.52;;;11.60;81.20;;;;;;4979411;28;20104;-75
2023/12/21 00:11:19;;;;;;;2.85;1.63;;;11.50;81.20;;;;;;4995232;28;20034;-75
2023/12/21 00:13:45;;;;;;;3.13;1.90;;;11.50;81.20;;;;;;4978694;28;20392;-76
2023/12/21 00:16:12;;;;;;;3.13;1.67;;;11.60;81.20;;;;;;4994860;28;20467;-76
2023/12/21 00:18:38;;;;;;;2.35;1.70;;;11.60;81.80;;;;;;4978355;28;20038;-75
2023/12/21 00:21:04;;;;;;;1.70;1.60;;;11.60;81.20;;;;;;4978756;28;20034;-76
2023/12/21 00:23:29;;;;;;;2.63;1.90;;;11.60;81.20;;;;;;4994955;28;20418;-76
2023/12/21 00:25:55;;;;;;;3.03;1.90;;;11.60;81.20;;;;;;4994656;28;20121;-75
2023/12/21 00:28:21;;;;;;;1.63;1.50;;;11.50;81.10;;;;;;4962295;28;20026;-75
2023/12/21 00:30:46;;;;;;;2.28;1.88;;;11.60;81.20;;;;;;4978323;28;20034;-76
2023/12/21 00:33:12;;;;;;;2.85;1.58;;;11.60;81.20;;;;;;4978087;28;20462;-75
2023/12/21 00:35:38;;;;;;;2.72;1.77;;;11.60;81.20;;;;;;4995119;28;20411;-75
2023/12/21 00:38:04;;;;;;;2.45;1.67;;;11.60;81.20;;;;;;4978398;28;20125;-76
2023/12/21 00:40:30;;;;;;;2.53;1.70;;;11.60;81.20;;;;;;4978169;28;20053;-76
2023/12/21 00:42:57;;;;;;;2.53;1.50;;;11.60;81.20;;;;;;4993980;28;20042;-75
2023/12/21 00:45:23;;;;;;;1.98;1.60;;;11.60;81.20;;;;;;4994400;28;20069;-76
2023/12/21 00:47:49;;;;;;;2.28;1.70;;;11.60;81.20;;;;;;4977919;28;20030;-76
2023/12/21 00:50:15;;;;;;;1.80;1.42;;;11.60;81.20;;;;;;4978111;28;20035;-76
2023/12/21 00:52:41;;;;;;;2.28;1.65;;;11.60;81.20;;;;;;4994110;28;20034;-76
2023/12/21 00:55:07;;;;;;;2.30;1.65;;;11.60;81.20;;;;;;4977842;28;20034;-75
2023/12/21 00:57:33;;;;;;;1.92;1.60;;;11.60;81.20;;;;;;4993346;28;20038;-76
2023/12/21 00:59:59;;;;;;;2.83;1.67;;;11.70;81.20;;;;;;4994277;28;20452;-75
2023/12/21 01:02:25;;;;;;;3.40;1.63;;;11.60;81.20;;;;;;4993856;28;20030;-76
2023/12/21 01:04:51;;;;;;;2.92;1.77;;;11.60;81.20;;;;;;4993686;28;20030;-75
2023/12/21 01:07:17;;;;;;;2.25;1.48;;;11.60;81.20;;;;;;4977787;28;20036;-76
2023/12/21 01:09:43;;;;;;;5.18;2.05;;;11.60;81.20;;;;;;4994046;28;20440;-75
2023/12/21 01:12:09;;;;;;;2.40;1.58;;;11.70;81.20;;;;;;4977496;28;20543;-75
2023/12/21 01:14:35;;;;;;;4.05;1.80;;;11.70;81.20;;;;;;4994805;28;20050;-75
2023/12/21 01:17:01;;;;;;;3.63;1.70;;;11.60;81.20;;;;;;4978188;28;20036;-76
2023/12/21 01:19:27;;;;;;;2.53;1.63;;;11.70;81.20;;;;;;4993670;28;20037;-76
2023/12/21 01:21:53;;;;;;;2.25;1.42;;;11.70;81.30;;;;;;4977405;28;20446;-75
2023/12/21 01:24:19;;;;;;;3.75;2.00;;;11.70;81.20;;;;;;4978046;28;20038;-75
2023/12/21 01:26:45;;;;;;;2.30;1.73;;;11.60;81.20;;;;;;4994779;28;20034;-76
2023/12/21 01:29:11;;;;;;;2.47;1.88;;;11.70;81.20;;;;;;4993512;28;20042;-76
2023/12/21 01:31:37;;;;;;;2.55;1.50;;;11.70;81.20;;;;;;4977176;28;20072;-75
2023/12/21 01:34:05;;;;;;;2.42;1.80;;;11.70;81.20;;;;;;4977403;28;20088;-75
2023/12/21 01:36:31;;;;;;;2.70;1.70;;;11.60;81.10;;;;;;4977441;28;20125;-75
2023/12/21 01:38:57;;;;;;;2.10;1.65;;;11.70;81.20;;;;;;4977043;28;20100;-75
2023/12/21 01:41:23;;;;;;;3.75;1.88;;;11.70;81.20;;;;;;4977803;28;20466;-76
2023/12/21 01:43:49;;;;;;;2.45;1.65;;;11.60;81.20;;;;;;4976966;28;20030;-75
2023/12/21 01:46:15;;;;;;;2.88;1.90;;;11.70;81.20;;;;;;4993939;28;20061;-75
2023/12/21 01:48:42;;;;;;;3.65;2.25;;;11.70;81.20;;;;;;4992929;28;20429;-75
2023/12/21 01:51:11;;;;;;;4.07;2.17;;;11.70;81.20;;;;;;4977068;28;20026;-75
2023/12/21 01:53:39;;;;;;;2.75;1.60;;;11.70;81.20;;;;;;4993308;28;20467;-76
2023/12/21 01:56:06;;;;;;;6.15;1.70;;;11.70;81.20;;;;;;4976631;28;20034;-75
2023/12/21 01:58:32;;;;;;;3.70;2.03;;;11.70;81.20;;;;;;4993227;28;20501;-76
2023/12/21 02:00:58;;;;;;;2.88;1.90;;;11.70;81.20;;;;;;4993083;28;20463;-75
2023/12/21 02:03:25;;;;;;;2.65;1.65;;;11.70;81.20;;;;;;4993201;28;20049;-76
2023/12/21 02:05:51;;;;;;;2.67;1.65;;;11.70;81.20;;;;;;4993895;28;20031;-76
2023/12/21 02:08:17;;;;;;;2.20;1.73;;;11.70;81.20;;;;;;4976224;28;20062;-75
2023/12/21 02:10:43;;;;;;;3.72;1.92;;;11.70;81.20;;;;;;4993818;28;20061;-75
2023/12/21 02:13:09;;;;;;;3.00;1.83;;;11.70;81.20;;;;;;4992676;28;20471;-75
2023/12/21 02:15:34;;;;;;;3.28;1.58;;;11.70;81.20;;;;;;4977103;28;20038;-75
2023/12/21 02:18:03;;;;;;;3.97;1.85;;;11.70;81.20;;;;;;4992635;28;20060;-75
2023/12/21 02:20:30;;;;;;;2.60;1.80;;;11.70;81.20;;;;;;4976582;28;20051;-75
2023/12/21 02:22:59;;;;;;;2.88;1.80;;;11.70;81.20;;;;;;4992579;28;20434;-75
2023/12/21 02:25:25;;;;;;;2.75;1.60;;;11.70;81.20;;;;;;4976614;28;20092;-76
2023/12/21 02:27:51;;;;;;;3.92;1.63;;;11.70;81.20;;;;;;4976986;28;20030;-76
2023/12/21 02:30:17;;;;;;;3.80;2.17;;;11.80;81.20;;;;;;4993416;28;20042;-75
2023/12/21 02:32:43;;;;;;;2.35;1.50;;;11.80;81.20;;;;;;4977417;28;20030;-75
2023/12/21 02:35:09;;;;;;;2.72;1.63;;;11.80;81.20;;;;;;4992443;28;20418;-76
2023/12/21 02:37:35;;;;;;;2.85;1.85;;;11.80;81.80;;;;;;4994103;28;20031;-75
2023/12/21 02:40:00;;;;;;;1.70;1.40;;;11.80;81.20;;;;;;4992603;28;20463;-75
2023/12/21 02:42:26;;;;;;;3.05;1.70;;;11.80;81.20;;;;;;4992654;28;20035;-76
2023/12/21 02:44:52;;;;;;;3.78;2.00;;;11.80;81.90;;;;;;4976246;28;20448;-75
2023/12/21 02:47:18;;;;;;;3.83;1.77;;;11.80;81.20;;;;;;4976331;28;20030;-75
2023/12/21 02:49:44;;;;;;;2.47;1.52;;;11.70;81.20;;;;;;4976521;28;20038;-76
2023/12/21 02:52:09;;;;;;;2.95;1.67;;;11.80;81.20;;;;;;4976433;28;20117;-76
2023/12/21 02:54:35;;;;;;;2.25;1.67;;;11.80;81.20;;;;;;4976660;28;20142;-76
2023/12/21 02:57:01;;;;;;;3.20;1.70;;;11.70;81.20;;;;;;4976309;28;20034;-76
2023/12/21 02:59:27;;;;;;;2.70;1.70;;;11.80;81.20;;;;;;4976386;28;20041;-75
2023/12/21 03:01:53;;;;;;;1.83;1.60;;;11.80;81.20;;;;;;4977132;28;20043;-75
2023/12/21 03:04:18;;;;;;;2.35;1.60;;;11.80;81.20;;;;;;4975983;28;20034;-76
2023/12/21 03:06:44;;;;;;;2.70;1.90;;;11.80;81.20;;;;;;4975968;28;20030;-75
2023/12/21 03:09:10;;;;;;;3.05;1.77;;;11.80;81.20;;;;;;4976007;28;20095;-75
2023/12/21 03:11:36;;;;;;;2.25;1.63;;;11.80;81.20;;;;;;4992914;28;20170;-76
2023/12/21 03:14:03;;;;;;;2.92;1.80;;;11.80;81.20;;;;;;4992228;28;20491;-77
2023/12/21 03:16:29;;;;;;;3.20;1.75;;;11.80;81.20;;;;;;4976193;28;20062;-75
2023/12/21 03:18:54;;;;;;;3.33;1.80;;;11.80;81.20;;;;;;4992911;28;20458;-76
2023/12/21 03:21:20;;;;;;;2.13;1.70;;;11.80;81.20;;;;;;4978858;28;20505;-75
2023/12/21 03:23:46;;;;;;;2.55;1.55;;;11.80;81.20;;;;;;4979635;28;20030;-75
2023/12/21 03:26:13;;;;;;;2.53;1.55;;;11.80;81.20;;;;;;4995874;28;20045;-76
2023/12/21 03:28:44;;;;;;;2.75;1.70;;;11.80;81.20;;;;;;4979485;28;20118;-76
2023/12/21 03:31:10;;;;;;;3.60;1.70;;;11.80;81.20;;;;;;4995882;28;20391;-75
2023/12/21 03:33:36;;;;;;;4.03;1.90;;;11.80;81.20;;;;;;4979669;28;20496;-75
2023/12/21 03:36:02;;;;;;;4.05;2.00;;;11.80;81.20;;;;;;4995425;28;20110;-76
2023/12/21 03:38:28;;;;;;;2.67;1.70;;;11.80;81.20;;;;;;4979405;28;20084;-75
2023/12/21 03:40:54;;;;;;;2.45;1.65;;;11.80;81.20;;;;;;4995429;28;20034;-76
2023/12/21 03:43:20;;;;;;;3.92;1.73;;;11.80;81.20;;;;;;4995730;28;20037;-75
2023/12/21 03:45:46;;;;;;;2.72;1.42;;;11.80;81.20;;;;;;4979194;28;20414;-76
2023/12/21 03:48:12;;;;;;;2.40;1.60;;;11.80;81.20;;;;;;4995089;28;20034;-75
2023/12/21 03:50:37;;;;;;;2.80;1.85;;;11.80;81.20;;;;;;4979049;28;20038;-76
2023/12/21 03:53:05;;;;;;;2.33;1.60;;;11.90;81.20;;;;;;4978882;28;20034;-75
2023/12/21 03:55:31;;;;;;;3.08;1.77;;;11.90;81.20;;;;;;4995043;28;20030;-76
2023/12/21 03:57:57;;;;;;;3.70;1.90;;;11.80;81.20;;;;;;4979400;28;20529;-75
2023/12/21 04:00:23;;;;;;;2.05;1.50;;;11.90;81.30;;;;;;4979564;28;20402;-76
2023/12/21 04:02:49;;;;;;;4.22;1.75;;;11.90;81.30;;;;;;4979131;28;20057;-75
2023/12/21 04:05:15;;;;;;;2.75;1.63;;;11.90;81.20;;;;;;4979127;28;20495;-76
2023/12/21 04:07:40;;;;;;;3.60;1.70;;;11.90;81.30;;;;;;4978831;28;20120;-76
2023/12/21 04:10:07;;;;;;;4.13;1.83;;;11.90;81.30;;;;;;4994722;28;20092;-75
2023/12/21 04:12:32;;;;;;;3.80;1.90;;;11.90;81.20;;;;;;4994633;28;20122;-75
2023/12/21 04:14:58;;;;;;;3.38;1.73;;;11.90;81.20;;;;;;4978083;28;20070;-75
2023/12/21 04:17:24;;;;;;;4.10;1.85;;;11.80;81.20;;;;;;4994636;28;20038;-75
2023/12/21 04:19:51;;;;;;;4.88;1.90;;;11.90;81.20;;;;;;4978543;28;20049;-75
2023/12/21 04:22:17;;;;;;;3.97;1.60;;;11.90;81.30;;;;;;4995693;28;20035;-76
2023/12/21 04:24:44;;;;;;;3.70;1.70;;;11.90;81.30;;;;;;4995282;28;20081;-75
2023/12/21 04:27:11;;;;;;;2.67;1.70;;;11.90;81.30;;;;;;4979108;28;20379;-76
2023/12/21 04:29:39;;;;;;;3.60;1.70;;;11.90;81.30;;;;;;4994373;28;20471;-75
2023/12/21 04:32:06;;;;;;;3.22;1.67;;;11.90;81.30;;;;;;4977550;28;20046;-75
2023/12/21 04:34:32;;;;;;;3.45;1.83;;;11.90;81.20;;;;;;4978368;28;20038;-75
2023/12/21 04:36:57;;;;;;;4.28;2.05;;;11.90;81.20;;;;;;4978462;28;20382;-75
2023/12/21 04:39:23;;;;;;;2.63;1.80;;;11.90;81.30;;;;;;4978949;28;20456;-76
2023/12/21 04:41:49;;;;;;;3.30;1.83;;;11.90;81.20;;;;;;4994412;28;20034;-76
2023/12/21 04:44:15;;;;;;;3.60;1.75;;;11.90;81.20;;;;;;4978819;28;20117;-75
2023/12/21 04:46:41;;;;;;;2.60;1.60;;;11.90;81.20;;;;;;4978094;28;20109;-76
2023/12/21 04:49:07;;;;;;;2.30;1.63;;;11.90;81.20;;;;;;4977989;28;20034;-76
2023/12/21 04:51:34;;;;;;;2.90;1.60;;;11.90;81.20;;;;;;4995391;28;20112;-75
2023/12/21 04:53:59;;;;;;;3.13;1.70;;;11.90;81.20;;;;;;4978154;28;20479;-76
2023/12/21 04:56:25;;;;;;;2.72;1.77;;;11.90;81.20;;;;;;4978601;28;20061;-75
2023/12/21 04:58:51;;;;;;;3.53;1.70;;;11.90;81.20;;;;;;4977755;28;20030;-76
2023/12/21 05:01:17;;;;;;;3.00;1.60;;;11.90;81.30;;;;;;4994610;28;20436;-76
2023/12/21 05:03:44;;;;;;;4.28;1.75;;;11.90;81.20;;;;;;4995872;28;20031;-76
2023/12/21 05:06:09;;;;;;;2.08;1.60;;;11.90;81.20;;;;;;4977768;28;20080;-75
2023/12/21 05:08:35;;;;;;;3.05;1.58;;;11.90;81.20;;;;;;4978306;28;20030;-76
2023/12/21 05:11:02;;;;;;;4.88;1.90;;;11.90;81.20;;;;;;4977578;28;20528;-76
2023/12/21 05:13:28;;;;;;;2.75;1.60;;;11.90;81.20;;;;;;4993490;28;20065;-75
2023/12/21 05:15:53;;;;;;;4.00;1.75;;;11.90;81.20;;;;;;4993456;28;20038;-75
2023/12/21 05:18:19;;;;;;;2.47;1.50;;;11.90;81.20;;;;;;4994197;28;20097;-75
2023/12/21 05:20:45;;;;;;;1.73;1.48;;;11.90;81.30;;;;;;4977385;28;20455;-75
2023/12/21 05:23:11;;;;;;;2.67;1.70;;;11.90;81.20;;;;;;4977787;28;20047;-75
2023/12/21 05:25:37;;;;;;;4.88;1.80;;;11.90;81.20;;;;;;4977525;28;20057;-76
2023/12/21 05:28:02;;;;;;;3.58;1.80;;;12.00;81.30;;;;;;4993250;28;20125;-76
2023/12/21 05:30:28;;;;;;;3.10;1.67;;;12.00;81.30;;;;;;4993382;28;20080;-75
2023/12/21 05:32:54;;;;;;;2.60;1.52;;;12.00;81.30;;;;;;4976995;28;20045;-76
2023/12/21 05:35:20;;;;;;;2.47;1.60;;;12.00;81.30;;;;;;4977217;28;20042;-75
2023/12/21 05:37:46;;;;;;;3.75;1.70;;;12.00;81.30;;;;;;4993285;28;20442;-76
2023/12/21 05:40:41;;;;;;;2.63;1.50;;;12.00;81.40;;;;;;5076011;28;20389;-77
2023/12/21 05:43:07;;;;;;;4.38;1.90;;;12.00;81.30;;;;;;5041648;28;22026;-77
2023/12/21 05:45:32;;;;;;;2.08;1.73;;;11.90;81.20;;;;;;5022500;28;20033;-77
2023/12/21 05:47:58;;;;;;;3.47;1.95;;;12.00;81.30;;;;;;5039377;28;20381;-74
2023/12/21 05:50:25;;;;;;;3.08;1.63;;;12.00;81.30;;;;;;5045636;28;20040;-75
2023/12/21 05:52:51;;;;;;;2.50;1.48;;;12.00;81.30;;;;;;5042596;28;20048;-76
2023/12/21 05:55:17;;;;;;;3.22;1.85;;;12.00;81.30;;;;;;5029102;28;20473;-75
2023/12/21 05:57:43;;;;;;;3.75;1.85;;;11.90;81.20;;;;;;5054776;28;20087;-77
2023/12/21 06:00:10;;;;;;;3.03;1.63;;;12.00;81.30;;;;;;5046236;28;20037;-74
2023/12/21 06:02:36;;;;;;;3.40;1.70;;;12.00;81.30;;;;;;5033168;28;20486;-77
2023/12/21 06:05:02;;;;;;;2.85;1.75;;;12.00;81.30;;;;;;5026584;28;20025;-77
2023/12/21 06:07:28;;;;;;;4.13;1.95;;;12.00;81.30;;;;;;5029236;28;20498;-74
2023/12/21 06:09:55;;;;;;;2.42;1.50;;;12.00;81.30;;;;;;5004683;28;20428;-76
2023/12/21 06:12:22;;;;;;;4.50;1.75;;;12.00;81.30;;;;;;5040656;28;20040;-74
2023/12/21 06:14:48;;;;;;;2.75;1.60;;;12.00;81.30;;;;;;5048790;28;20025;-74
2023/12/21 06:17:14;;;;;;;2.90;1.88;;;12.00;81.30;;;;;;5055244;28;20039;-77
2023/12/21 06:19:42;;;;;;;3.50;1.73;;;12.00;81.30;;;;;;5060184;28;20028;-75
2023/12/21 06:22:08;;;;;;;3.08;1.52;;;12.00;81.30;;;;;;5059753;28;20040;-75
2023/12/21 06:24:34;;;;;;;2.83;1.73;;;12.00;81.30;;;;;;5023563;28;20603;-77
2023/12/21 06:26:59;;;;;;;3.13;1.67;;;12.00;81.20;;;;;;5064048;28;20036;-77
2023/12/21 06:29:25;;;;;;;2.28;1.70;;;12.00;81.30;;;;;;5061967;28;20085;-74
2023/12/21 06:31:51;;;;;;;2.53;1.70;;;12.00;81.30;;;;;;5015598;28;20477;-77
2023/12/21 06:34:17;;;;;;;3.22;1.63;;;12.00;81.30;;;;;;5025084;28;20443;-77
2023/12/21 06:36:43;;;;;;;4.78;1.88;;;12.00;81.30;;;;;;5044567;28;20470;-77
2023/12/21 06:39:09;;;;;;;3.47;1.60;;;12.00;81.30;;;;;;5046826;28;20405;-77
2023/12/21 06:41:35;;;;;;;1.83;1.48;;;12.00;81.30;;;;;;5026433;28;20032;-77
2023/12/21 06:44:01;;;;;;;3.90;1.67;;;12.10;81.30;;;;;;5035617;28;20435;-77
2023/12/21 06:46:26;;;;;;;3.90;1.70;;;12.00;81.90;;;;;;5044615;28;20033;-77
2023/12/21 06:48:52;;;;;;;1.63;1.42;;;12.00;81.20;;;;;;5045166;28;20041;-77
2023/12/21 06:51:18;;;;;;;3.75;1.83;;;12.10;81.30;;;;;;5003473;28;20488;-77
2023/12/21 06:53:43;;;;;;;3.67;1.90;;;12.10;81.30;;;;;;5007204;28;20075;-77
2023/12/21 06:56:10;;;;;;;4.47;2.10;;;12.10;81.30;;;;;;5025132;28;20029;-77
2023/12/21 06:58:35;;;;;;;3.30;1.63;;;12.10;81.30;;;;;;5044006;28;20037;-78
2023/12/21 07:01:01;;;;;;;3.22;1.65;;;12.10;81.30;;;;;;5016854;28;20390;-77
2023/12/21 07:03:28;;;;;;;2.58;1.60;;;12.10;81.30;;;;;;5031838;28;20029;-77
2023/12/21 07:05:54;;;;;;;2.22;1.67;;;12.10;81.30;;;;;;5032422;28;20033;-76
2023/12/21 07:08:19;;;;;;;3.05;1.73;;;12.10;81.30;;;;;;5016024;28;20025;-76
2023/12/21 07:10:45;;;;;;;2.45;1.60;;;12.10;81.30;;;;;;5005396;28;20032;-77
2023/12/21 07:13:11;;;;;;;3.97;2.10;;;12.10;81.30;;;;;;5005219;28;20033;-77
2023/12/21 07:15:37;;;;;;;2.78;1.70;;;12.10;81.30;;;;;;5022505;28;20458;-76
2023/12/21 07:18:04;;;;;;;3.15;1.63;;;12.10;81.40;;;;;;5046729;28;20029;-76
2023/12/21 07:20:30;;;;;;;3.45;1.80;;;12.10;81.30;;;;;;5028705;28;20036;-77
2023/12/21 07:22:56;;;;;;;4.30;1.55;;;12.10;81.30;;;;;;5031977;28;20042;-76
2023/12/21 07:25:22;;;;;;;2.45;1.58;;;12.10;81.40;;;;;;5028372;28;20094;-77
2023/12/21 07:27:48;;;;;;;4.13;1.80;;;12.10;81.40;;;;;;5037410;28;20033;-76
2023/12/21 07:30:15;;;;;;;2.45;1.55;;;12.10;81.30;;;;;;5027015;28;20466;-77
2023/12/21 07:32:41;;;;;;;3.22;1.40;;;12.10;81.30;;;;;;5038961;28;20129;-77
2023/12/21 07:35:07;;;;;;;2.38;1.60;;;12.10;81.30;;;;;;5028739;28;20482;-78
2023/12/21 07:37:33;;;;;;;2.58;1.40;;;12.10;81.30;;;;;;5026366;28;20404;-76
2023/12/21 07:39:59;;;;;;;2.72;1.55;;;12.20;81.40;;;;;;5014223;28;20057;-77
2023/12/21 07:42:26;;;;;;;4.15;1.88;;;12.10;81.30;;;;;;5039107;28;20033;-76
2023/12/21 07:44:52;;;;;;;2.80;1.80;;;12.10;81.30;;;;;;5029908;28;20036;-76
2023/12/21 07:47:18;;;;;;;1.70;1.35;;;12.10;81.30;;;;;;5026215;28;20524;-76
2023/12/21 07:49:43;;;;;;;2.35;1.52;;;12.10;81.30;;;;;;5031276;28;20515;-77
2023/12/21 07:52:09;;;;;;;3.50;1.60;;;12.10;81.30;;;;;;5014459;28;20470;-77
2023/12/21 07:54:35;;;;;;;3.20;1.70;;;12.20;81.40;;;;;;5003322;28;20500;-77
2023/12/21 07:57:01;;;;;;;1.50;1.40;;;12.20;81.40;;;;;;5041734;28;20061;-77
2023/12/21 07:59:26;;;;;;;2.63;1.58;;;12.20;81.40;;;;;;5016290;28;20028;-77
2023/12/21 08:01:52;;;;;;;2.80;1.70;;;12.20;81.40;;;;;;5048957;28;20102;-76
2023/12/21 08:04:18;;;;;;;3.22;1.60;;;12.10;81.30;;;;;;5031679;28;20473;-76
2023/12/21 08:06:44;;;;;;;4.20;1.58;;;12.10;81.30;;;;;;5033948;28;20021;-77
2023/12/21 08:09:10;;;;;;;3.70;1.55;;;12.20;81.40;;;;;;5006086;28;20035;-76
2023/12/21 08:11:35;;;;;;;2.35;1.50;;;12.20;81.40;;;;;;5032917;28;20053;-76
2023/12/21 08:14:01;;;;;;;4.40;1.60;;;12.20;81.40;;;;;;5031944;28;20359;-76
2023/12/21 08:16:27;;;;;;;4.53;1.60;;;12.20;81.40;;;;;;5016203;28;20415;-76
2023/12/21 08:18:54;;;;;;;2.40;1.70;;;12.20;81.30;;;;;;5028857;28;20045;-77
2023/12/21 08:21:19;;;;;;;1.73;1.33;;;12.20;81.40;;;;;;5013064;28;20370;-76
2023/12/21 08:23:45;;;;;;;3.17;1.55;;;12.20;81.40;;;;;;5049505;28;20048;-76
2023/12/21 08:26:11;;;;;;;2.35;1.30;;;12.20;81.30;;;;;;5033272;28;20031;-76
2023/12/21 08:28:38;;;;;;;3.28;1.60;;;12.20;81.40;;;;;;5032471;28;20025;-76
2023/12/21 08:31:03;;;;;;;2.75;1.60;;;12.20;81.30;;;;;;5027166;28;20025;-76
2023/12/21 08:33:30;;;;;;;2.05;1.33;;;12.20;81.30;;;;;;5029157;28;20029;-76
2023/12/21 08:35:56;;;;;;;1.73;1.40;;;12.20;81.40;;;;;;5030116;28;20039;-76
2023/12/21 08:38:22;;;;;;;2.63;1.50;;;12.20;81.40;;;;;;5044929;28;20056;-76
2023/12/21 08:40:48;;;;;;;2.35;1.38;;;12.20;81.40;;;;;;5041719;28;20049;-77
2023/12/21 08:43:14;;;;;;;2.00;1.60;;;12.20;81.40;;;;;;5029710;28;20078;-76
2023/12/21 08:45:40;;;;;;;1.88;1.30;;;12.20;81.40;;;;;;5033209;28;20631;-77
2023/12/21 08:48:06;;;;;;;3.05;1.48;;;12.20;81.40;;;;;;5032786;28;20041;-77
2023/12/21 08:50:32;;;;;;;1.80;1.50;;;12.20;81.40;;;;;;5000253;28;20044;-76
2023/12/21 08:53:00;;;;;;;2.05;1.20;;;12.20;81.40;;;;;;5007226;28;20382;-78
2023/12/21 08:55:27;;;;;;;2.60;1.20;;;12.30;81.40;;;;;;5012531;28;20025;-76
2023/12/21 08:57:55;;;;;;;1.58;1.20;;;12.20;81.40;;;;;;5025986;28;20064;-76
2023/12/21 09:00:21;;;;;;;1.83;1.15;;;12.30;81.40;;;;;;5044433;28;20028;-76
2023/12/21 09:02:46;;;;;;;1.88;0.95;;;12.30;81.40;;;;;;5016756;28;20478;-77
2023/12/21 09:05:13;;;;;;;2.58;1.13;;;12.20;81.40;;;;;;5011464;28;20056;-77
2023/12/21 09:07:39;;;;;;;1.13;1.00;;;12.30;81.40;;;;;;5010672;28;20030;-76
2023/12/21 09:10:06;;;;;;;2.80;1.45;;;12.30;81.40;;;;;;5031173;28;20029;-76
2023/12/21 09:12:32;;;;;;;1.95;1.40;;;12.30;81.50;;;;;;5008196;28;20038;-76
2023/12/21 09:14:58;;;;;;;1.80;1.23;;;12.30;81.40;;;;;;5012721;28;20029;-76
2023/12/21 09:17:23;;;;;;;1.27;1.10;;;12.20;81.40;;;;;;5011723;28;20040;-77
2023/12/21 09:19:49;;;;;;;1.75;1.10;;;12.30;81.50;;;;;;5024661;28;20068;-77
2023/12/21 09:22:15;;;;;;;2.05;1.08;;;12.30;81.40;;;;;;5028586;28;20122;-77
2023/12/21 09:24:41;;;;;;;2.33;1.30;;;12.30;81.40;;;;;;5006556;28;20060;-77
2023/12/21 09:27:06;;;;;;;2.17;1.10;;;12.30;81.40;;;;;;5033863;28;20056;-77
2023/12/21 09:29:32;;;;;;;2.00;1.20;;;12.30;81.40;;;;;;5044821;28;20037;-77
2023/12/21 09:31:59;;;;;;;1.40;1.10;;;12.30;81.40;;;;;;5015955;28;20543;-77
2023/12/21 09:34:25;;;;;;;2.28;1.73;;;12.30;81.40;;;;;;5015544;28;20078;-77
2023/12/21 09:36:53;;;;;;;1.45;1.30;;;12.30;81.40;;;;;;5012429;28;20025;-77
2023/12/21 09:39:19;;;;;;;3.03;1.20;;;12.30;81.40;;;;;;5031396;28;20088;-77
2023/12/21 09:41:45;;;;;;;1.65;1.20;;;12.30;81.40;;;;;;5030365;28;20021;-77
2023/12/21 09:44:16;;;;;;;2.95;1.35;;;12.30;81.40;;;;;;5031262;28;20056;-77
2023/12/21 09:46:44;;;;;;;2.40;1.20;;;12.40;81.50;;;;;;5032868;28;20033;-76
2023/12/21 09:49:13;;;;;;;1.73;1.10;;;12.40;81.40;;;;;;5026324;28;20029;-78
2023/12/21 09:51:39;;;;;;;1.52;1.13;;;12.40;81.40;;;;;;5026107;28;20088;-76
2023/12/21 09:54:07;;;;;;;2.45;1.20;;;12.40;81.40;;;;;;5022479;28;20473;-76
2023/12/21 09:56:33;;;;;;;1.45;1.10;;;12.40;81.40;;;;;;5021230;28;20132;-76
2023/12/21 09:59:01;;;;;;;2.55;1.23;;;12.40;81.40;;;;;;5009022;28;20075;-77
2023/12/21 10:01:27;;;;;;;1.15;1.10;;;12.40;81.40;;;;;;5042858;28;20035;-76
2023/12/21 10:03:53;;;;;;;3.10;1.38;;;12.40;81.40;;;;;;5037074;28;20430;-76
2023/12/21 10:06:19;;;;;;;2.03;1.20;;;12.40;81.40;;;;;;5027537;28;20041;-77
2023/12/21 10:08:44;;;;;;;1.70;1.20;;;12.40;81.40;;;;;;5025330;28;20053;-77
2023/12/21 10:11:10;;;;;;;2.28;1.50;;;12.40;81.40;;;;;;5020808;28;20059;-76
2023/12/21 10:13:36;;;;;;;1.67;1.23;;;12.40;81.40;;;;;;5025120;28;20029;-77
2023/12/21 10:16:05;;;;;;;2.00;1.10;;;12.40;81.40;;;;;;5021013;28;20017;-77
2023/12/21 10:18:31;;;;;;;2.05;1.13;;;12.40;81.40;;;;;;5022597;28;20040;-76
2023/12/21 10:20:59;;;;;;;1.52;1.10;;;12.50;81.50;;;;;;5026275;28;20033;-77
2023/12/21 10:23:25;;;;;;;1.25;1.10;;;12.50;81.50;;;;;;5031400;28;20040;-76
2023/12/21 10:25:54;;;;;;;3.03;1.40;;;12.50;81.50;;;;;;5024836;28;20521;-76
2023/12/21 10:28:23;;;;;;;3.10;1.48;;;12.50;81.50;;;;;;5048109;28;20037;-77
2023/12/21 10:30:54;;;;;;;2.53;1.02;;;12.50;81.50;;;;;;5047782;28;20040;-76
2023/12/21 10:33:19;;;;;;;2.45;1.10;;;12.50;81.50;;;;;;5025696;28;20053;-76
2023/12/21 10:35:45;;;;;;;2.10;1.30;;;12.50;81.50;;;;;;5018459;28;20082;-77
2023/12/21 10:38:11;;;;;;;2.30;1.15;;;12.50;81.40;;;;;;5049692;28;20056;-75
2023/12/21 10:40:37;;;;;;;1.88;1.17;;;12.50;81.40;;;;;;5046445;28;20485;-77
2023/12/21 10:43:03;;;;;;;1.27;1.08;;;12.50;81.40;;;;;;5032738;28;20111;-76
2023/12/21 10:45:29;;;;;;;2.47;1.10;;;12.60;82.10;;;;;;5022968;28;20032;-75
2023/12/21 10:47:56;;;;;;;1.42;1.08;;;12.60;81.50;;;;;;5033575;28;20398;-76
2023/12/21 10:50:24;;;;;;;2.20;1.10;;;12.60;81.50;;;;;;5016387;28;20053;-76
2023/12/21 10:52:51;;;;;;;3.53;1.70;;;12.60;81.50;;;;;;5049497;28;20532;-76
2023/12/21 10:55:18;;;;;;;0.93;0.93;;;12.60;81.50;;;;;;5046228;28;20037;-76
2023/12/21 10:57:45;;;;;;;1.95;1.13;;;12.60;81.50;;;;;;5027381;28;20041;-76
2023/12/21 11:00:15;;;;;;;1.45;1.00;;;12.60;81.50;;;;;;5018591;28;20025;-76
2023/12/21 11:02:45;;;;;;;2.55;1.13;;;12.60;81.50;;;;;;5044325;28;20087;-76
2023/12/21 11:05:19;;;;;;;2.25;1.33;;;12.60;81.50;;;;;;5045109;28;20033;-76
2023/12/21 11:07:49;;;;;;;1.45;1.10;;;12.60;82.10;;;;;;5046599;28;20035;-76
2023/12/21 11:10:17;;;;;;;1.40;1.00;;;12.60;81.50;;;;;;5034404;28;20370;-77
2023/12/21 11:12:42;;;;;;;1.52;1.00;;;12.70;81.60;;;;;;5043996;28;20021;-76
2023/12/21 11:15:09;;;;;;;1.85;1.27;;;12.70;81.60;;;;;;5034726;28;20032;-76
2023/12/21 11:17:36;;;;;;;1.17;0.95;;;12.70;81.50;;;;;;5041752;28;20137;-76
2023/12/21 11:20:02;;;;;;;1.38;1.00;;;12.70;81.50;;;;;;5008526;28;20116;-75
2023/12/21 11:22:28;;;;;;;2.25;1.17;;;12.70;82.10;;;;;;5050130;28;20049;-76
2023/12/21 11:25:04;;;;;;;2.40;1.02;;;12.70;81.50;;;;;;5010070;28;20025;-75
2023/12/21 11:27:36;;;;;;;3.00;1.10;;;12.70;81.60;;;;;;5006527;28;20041;-76
2023/12/21 11:30:10;;;;;;;1.48;1.23;;;12.70;81.50;;;;;;5047795;28;20477;-75
2023/12/21 11:32:40;;;;;;;2.38;1.10;;;12.70;81.60;;;;;;5034350;28;20033;-76
2023/12/21 11:35:21;;;;;;;2.30;1.10;;;12.70;81.50;;;;;;5048177;28;20478;-74
2023/12/21 11:37:54;;;;;;;1.10;1.10;;;12.70;81.60;;;;;;5047841;28;20025;-76
2023/12/21 11:40:21;;;;;;;1.63;1.20;;;12.80;81.60;;;;;;5042685;28;20478;-76
2023/12/21 11:42:49;;;;;;;1.50;1.13;;;12.80;81.60;;;;;;5047892;28;20032;-76
2023/12/21 11:45:31;;;;;;;1.10;1.00;;;12.70;81.50;;;;;;5047116;28;20037;-77
2023/12/21 11:48:04;;;;;;;1.42;1.00;;;12.80;81.60;;;;;;5006175;28;20154;-76
2023/12/21 11:50:33;;;;;;;1.02;0.95;;;12.80;81.60;;;;;;5028477;28;20065;-76
2023/12/21 11:53:10;;;;;;;2.53;1.00;;;12.80;81.60;;;;;;5045984;28;20031;-75
2023/12/21 11:55:43;;;;;;;1.00;0.90;;;12.80;81.60;;;;;;5039213;28;20030;-75
2023/12/21 11:58:13;;;;;;;1.95;1.08;;;12.80;81.60;;;;;;5049441;28;20531;-75
2023/12/21 12:01:07;;;;;;;1.77;1.00;;;12.80;81.60;;;;;;5037080;28;20409;-76
2023/12/21 12:03:32;;;;;;;1.90;1.00;;;12.80;81.60;;;;;;5040198;28;20096;-75
2023/12/21 12:06:03;;;;;;;1.45;0.98;;;12.80;81.50;;;;;;5031662;28;20500;-76
2023/12/21 12:08:32;;;;;;;1.60;1.20;;;12.90;81.60;;;;;;5028838;28;20033;-76
2023/12/21 12:10:58;;;;;;;0.90;0.80;;;12.90;81.50;;;;;;5047310;28;20070;-76
2023/12/21 12:13:24;;;;;;;1.83;1.10;;;12.80;81.50;;;;;;5032839;28;20033;-76
2023/12/21 12:15:52;;;;;;;1.13;1.00;;;12.90;81.60;;;;;;5029334;28;20388;-76
2023/12/21 12:18:21;;;;;;;1.25;1.08;;;12.90;81.60;;;;;;5029933;28;20029;-78
2023/12/21 12:20:48;;;;;;;2.95;1.08;;;12.90;81.60;;;;;;5026105;28;20036;-76
2023/12/21 12:23:15;;;;;;;1.17;0.82;;;12.90;81.60;;;;;;5028395;28;20079;-76
2023/12/21 12:25:42;;;;;;;1.13;1.05;;;12.90;81.60;;;;;;5048722;28;20108;-76
2023/12/21 12:28:08;;;;;;;1.35;1.00;;;12.90;81.60;;;;;;5033740;28;20033;-76
2023/12/21 12:30:38;;;;;;;1.30;0.90;;;12.90;81.50;;;;;;5033368;28;20065;-76
2023/12/21 12:33:05;;;;;;;1.15;1.02;;;12.90;81.60;;;;;;5032230;28;20084;-75
2023/12/21 12:35:37;;;;;;;1.25;1.00;;;13.00;81.60;;;;;;5011984;28;20470;-75
2023/12/21 12:38:07;;;;;;;2.25;1.13;;;13.00;81.60;;;;;;5030248;28;20037;-76
2023/12/21 12:40:34;;;;;;;1.60;1.02;;;13.00;81.60;;;;;;5032891;28;20520;-76
2023/12/21 12:43:01;;;;;;;1.02;1.00;;;13.00;81.50;;;;;;5016925;28;20032;-75
2023/12/21 12:45:26;;;;;;;1.65;1.23;;;13.00;81.50;;;;;;5030508;28;20029;-77